This is the latest recevied weather packets stored in our database for station/object OE3MHU-12. If no packets are shown the sender has not sent any weather packets the latest 10 day(s).
| Time | Temp. | Humidity | Pressure | Rain* | Wind** | Luminosity | Snow |
|---|---|---|---|---|---|---|---|
| 1776984986 | 6.11° C | 58% | 1020.4 hPa | 0 mm | - | - | - |
| 1776983186 | 7.22° C | 53% | 1020.3 hPa | 0 mm | - | - | - |
| 1776981386 | 6.67° C | 53% | 1020.2 hPa | 0 mm | - | - | - |
| 1776979586 | 7.22° C | 52% | 1020.4 hPa | 0 mm | - | - | - |
| 1776977786 | 7.78° C | 49% | 1020.1 hPa | 0 mm | - | - | - |
| 1776975986 | 9.44° C | 43% | 1020 hPa | 0 mm | - | - | - |
| 1776974186 | 11.11° C | 38% | 1019.8 hPa | 0 mm | - | - | - |
| 1776972386 | 12.22° C | 35% | 1019.7 hPa | 0 mm | - | - | - |
| 1776970586 | 12.78° C | 32% | 1019.5 hPa | 0 mm | - | - | - |
| 1776968786 | 13.89° C | 29% | 1019 hPa | 0 mm | - | - | - |
| 1776966986 | 15° C | 28% | 1018.7 hPa | 0 mm | - | - | - |
| 1776965187 | 16.11° C | 28% | 1018.5 hPa | 0 mm | - | - | - |
| 1776963387 | 17.22° C | 28% | 1018.3 hPa | 0 mm | - | - | - |
| 1776961587 | 17.78° C | 26% | 1018.3 hPa | 0 mm | - | - | - |
| 1776959787 | 18.33° C | 26% | 1018.5 hPa | 0 mm | - | - | - |
| 1776957987 | 18.33° C | 26% | 1018.6 hPa | 0 mm | - | - | - |
| 1776956187 | 18.33° C | 27% | 1018.9 hPa | 0 mm | - | - | - |
| 1776954387 | 18.33° C | 30% | 1019.2 hPa | 0 mm | - | - | - |
| 1776952587 | 18.33° C | 30% | 1019.6 hPa | 0 mm | - | - | - |
| 1776950787 | 17.78° C | 32% | 1020 hPa | 0 mm | - | - | - |
| 1776948987 | 16.67° C | 32% | 1020.6 hPa | 0 mm | - | - | - |
| 1776947187 | 17.78° C | 31% | 1020.6 hPa | 0 mm | - | - | - |
| 1776945388 | 17.22° C | 35% | 1021 hPa | 0 mm | - | - | - |
| 1776943588 | 16.11° C | 33% | 1021.1 hPa | 0 mm | - | - | - |
| 1776939988 | 15.56° C | 35% | 1022.2 hPa | 0 mm | - | - | - |
* Rain latest hour (hover to see other rain measurements)
** Current wind speed in m/s (hover to see current wind gust speed)